createdAt,value
2018-07-01T00:00:43.221Z,22.85
2018-07-01T00:01:43.249Z,22.88
2018-07-01T00:02:43.271Z,22.84
2018-07-01T00:03:43.293Z,22.79
2018-07-01T00:04:43.316Z,22.78
2018-07-01T00:05:43.348Z,22.81
2018-07-01T00:06:43.366Z,22.89
2018-07-01T00:07:43.388Z,22.85
2018-07-01T00:08:43.412Z,22.84
2018-07-01T00:09:43.431Z,22.78
2018-07-01T00:10:43.489Z,22.79
2018-07-01T00:11:43.482Z,22.85
2018-07-01T00:12:43.506Z,22.79
2018-07-01T00:13:43.525Z,22.78
2018-07-01T00:14:43.551Z,22.79
2018-07-01T00:15:43.574Z,22.79
2018-07-01T00:16:43.597Z,22.76
2018-07-01T00:17:43.626Z,22.78
2018-07-01T00:18:43.646Z,22.79
2018-07-01T00:19:43.665Z,22.72
2018-07-01T00:20:43.691Z,22.75
2018-07-01T00:21:43.718Z,22.76
2018-07-01T00:22:43.740Z,22.82
2018-07-01T00:23:43.764Z,22.75
2018-07-01T00:24:43.788Z,22.81
2018-07-01T00:25:43.815Z,22.75
2018-07-01T00:26:43.830Z,22.76
2018-07-01T00:27:43.859Z,22.76
2018-07-01T00:28:43.882Z,22.67
2018-07-01T00:29:43.902Z,22.70
2018-07-01T00:30:43.923Z,22.72
2018-07-01T00:31:43.944Z,22.70
2018-07-01T00:32:43.971Z,22.72
2018-07-01T00:33:43.995Z,22.72
2018-07-01T00:34:44.018Z,22.76
2018-07-01T00:35:44.040Z,22.78
2018-07-01T00:36:44.066Z,22.70
2018-07-01T00:37:44.090Z,22.74
2018-07-01T00:38:44.113Z,22.70
2018-07-01T00:39:44.134Z,22.75
2018-07-01T00:40:44.159Z,22.78
2018-07-01T00:41:44.176Z,22.72
2018-07-01T00:42:44.201Z,22.74
2018-07-01T00:43:44.231Z,22.72
2018-07-01T00:44:44.252Z,22.74
2018-07-01T00:45:44.271Z,22.70
2018-07-01T00:46:44.294Z,22.66
2018-07-01T00:47:44.322Z,22.70
2018-07-01T00:48:44.343Z,22.59
2018-07-01T00:49:44.368Z,22.75
2018-07-01T00:50:44.391Z,22.70
2018-07-01T00:51:44.410Z,22.72
2018-07-01T00:52:44.435Z,22.67
2018-07-01T00:53:44.463Z,22.66
2018-07-01T00:54:44.484Z,22.69
2018-07-01T00:55:44.510Z,22.67
2018-07-01T00:56:44.532Z,22.67
2018-07-01T00:57:44.551Z,22.69
2018-07-01T00:58:44.574Z,22.66
2018-07-01T00:59:44.605Z,22.67
2018-07-01T01:00:44.621Z,22.66
2018-07-01T01:01:44.648Z,22.64
2018-07-01T01:02:44.680Z,22.66
2018-07-01T01:03:44.689Z,22.64
2018-07-01T01:04:44.771Z,22.60
2018-07-01T01:05:44.763Z,22.66
2018-07-01T01:06:44.773Z,22.63
2018-07-01T01:07:44.786Z,22.63
2018-07-01T01:08:44.811Z,22.67
2018-07-01T01:09:44.830Z,22.59
2018-07-01T01:10:44.853Z,22.60
2018-07-01T01:11:44.877Z,22.60
2018-07-01T01:12:44.896Z,22.59
2018-07-01T01:13:44.925Z,22.59
2018-07-01T01:14:44.949Z,22.56
2018-07-01T01:15:44.967Z,22.59
2018-07-01T01:16:44.993Z,22.63
2018-07-01T01:17:45.019Z,22.66
2018-07-01T01:18:45.043Z,22.60
2018-07-01T01:19:45.071Z,22.59
2018-07-01T01:20:45.089Z,22.59
2018-07-01T01:21:45.118Z,22.54
2018-07-01T01:22:45.132Z,22.51
2018-07-01T01:23:45.160Z,22.63
2018-07-01T01:24:45.180Z,22.57
2018-07-01T01:25:45.200Z,22.60
2018-07-01T01:26:45.222Z,22.60
2018-07-01T01:27:45.243Z,22.60
2018-07-01T01:28:45.271Z,22.56
2018-07-01T01:29:45.299Z,22.56
2018-07-01T01:30:45.320Z,22.54
2018-07-01T01:31:45.340Z,22.52
2018-07-01T01:32:45.373Z,22.61
2018-07-01T01:33:45.391Z,22.59
2018-07-01T01:34:45.414Z,22.52
2018-07-01T01:35:45.435Z,22.45
2018-07-01T01:36:45.459Z,22.60
2018-07-01T01:37:45.477Z,22.54
2018-07-01T01:38:45.500Z,22.59
2018-07-01T01:39:45.538Z,22.54
2018-07-01T01:40:45.552Z,22.63
2018-07-01T01:41:45.573Z,22.57
2018-07-01T01:42:45.595Z,22.49
2018-07-01T01:43:45.617Z,22.54
2018-07-01T01:44:45.640Z,22.54
2018-07-01T01:45:45.668Z,22.51
2018-07-01T01:46:45.691Z,22.59
2018-07-01T01:47:45.710Z,22.63
2018-07-01T01:48:45.733Z,22.60
2018-07-01T01:49:45.761Z,22.56
2018-07-01T01:50:45.785Z,22.56
2018-07-01T01:51:45.806Z,22.59
2018-07-01T01:52:45.830Z,22.57
2018-07-01T01:53:45.850Z,22.54
2018-07-01T01:54:45.872Z,22.46
2018-07-01T01:55:45.901Z,22.54
2018-07-01T01:56:45.921Z,22.57
2018-07-01T01:57:45.946Z,22.51
2018-07-01T01:58:45.964Z,22.45
2018-07-01T01:59:45.989Z,22.54
2018-07-01T02:00:46.017Z,22.49
2018-07-01T02:01:46.040Z,22.56
2018-07-01T02:02:46.061Z,22.49
2018-07-01T02:03:46.083Z,22.57
2018-07-01T02:04:46.102Z,22.57
2018-07-01T02:05:46.133Z,22.48
2018-07-01T02:06:46.152Z,22.54
2018-07-01T02:07:46.178Z,22.56
2018-07-01T02:08:46.200Z,22.48
2018-07-01T02:09:46.220Z,22.46
2018-07-01T02:10:46.243Z,22.44
2018-07-01T02:11:46.270Z,22.45
2018-07-01T02:12:46.289Z,22.42
2018-07-01T02:13:46.310Z,22.48
2018-07-01T02:14:46.334Z,22.42
2018-07-01T02:15:46.361Z,22.44
2018-07-01T02:16:46.381Z,22.46
2018-07-01T02:17:46.409Z,22.48
2018-07-01T02:18:46.430Z,22.46
2018-07-01T02:19:46.450Z,22.45
2018-07-01T02:20:46.474Z,22.46
2018-07-01T02:21:46.500Z,22.45
2018-07-01T02:22:46.523Z,22.42
2018-07-01T02:23:46.545Z,22.42
2018-07-01T02:24:46.575Z,22.44
2018-07-01T02:25:46.590Z,22.45
2018-07-01T02:26:46.611Z,22.44
2018-07-01T02:27:46.640Z,22.42
2018-07-01T02:28:46.661Z,22.45
2018-07-01T02:29:46.681Z,22.48
2018-07-01T02:30:46.704Z,22.44
2018-07-01T02:31:46.726Z,22.42
2018-07-01T02:32:46.748Z,22.44
2018-07-01T02:33:46.777Z,22.49
2018-07-01T02:34:46.797Z,22.42
2018-07-01T02:35:46.817Z,22.45
2018-07-01T02:36:46.840Z,22.42
2018-07-01T02:37:46.873Z,22.45
2018-07-01T02:38:46.895Z,22.45
2018-07-01T02:39:46.915Z,22.46
2018-07-01T02:40:46.938Z,22.42
2018-07-01T02:41:46.962Z,22.44
2018-07-01T02:42:46.980Z,22.42
2018-07-01T02:43:47.009Z,22.44
2018-07-01T02:44:47.029Z,22.46
2018-07-01T02:45:47.048Z,22.46
2018-07-01T02:46:47.073Z,22.41
2018-07-01T02:47:47.096Z,22.48
2018-07-01T02:48:47.118Z,22.45
2018-07-01T02:49:47.146Z,22.44
2018-07-01T02:50:47.167Z,22.46
2018-07-01T02:51:47.188Z,22.45
2018-07-01T02:52:47.210Z,22.49
2018-07-01T02:53:47.340Z,22.45
2018-07-01T02:54:47.262Z,22.45
2018-07-01T02:55:47.284Z,22.46
2018-07-01T02:56:47.304Z,22.42
2018-07-01T02:57:47.331Z,22.49
2018-07-01T02:58:47.350Z,22.48
2018-07-01T02:59:47.375Z,22.49
2018-07-01T03:00:47.399Z,22.46
2018-07-01T03:01:47.418Z,22.44
2018-07-01T03:02:47.440Z,22.42
2018-07-01T03:03:47.466Z,22.44
2018-07-01T03:04:47.485Z,22.42
2018-07-01T03:05:47.517Z,22.45
2018-07-01T03:06:47.543Z,22.45
2018-07-01T03:07:47.558Z,22.45
2018-07-01T03:08:47.579Z,22.45
2018-07-01T03:09:47.606Z,22.52
2018-07-01T03:10:47.629Z,22.59
2018-07-01T03:11:47.649Z,22.56
2018-07-01T03:12:47.673Z,22.52
2018-07-01T03:13:47.693Z,22.57
2018-07-01T03:14:47.716Z,22.56
2018-07-01T03:15:47.746Z,22.57
2018-07-01T03:16:47.768Z,22.61
2018-07-01T03:17:47.788Z,22.70
2018-07-01T03:18:47.812Z,22.94
2018-07-01T03:19:47.830Z,23.18
2018-07-01T03:20:47.853Z,23.38
2018-07-01T03:21:47.882Z,23.60
2018-07-01T03:22:47.903Z,23.81
2018-07-01T03:23:47.924Z,23.97
2018-07-01T03:24:47.945Z,24.06
2018-07-01T03:25:47.973Z,24.29
2018-07-01T03:26:47.996Z,24.41
2018-07-01T03:27:48.023Z,24.53
2018-07-01T03:28:48.046Z,24.77
2018-07-01T03:29:48.065Z,24.94
2018-07-01T03:30:48.089Z,25.11
2018-07-01T03:31:48.115Z,25.20
2018-07-01T03:32:48.140Z,25.41
2018-07-01T03:33:48.157Z,25.63
2018-07-01T03:34:48.188Z,25.74
2018-07-01T03:35:48.209Z,25.96
2018-07-01T03:36:48.228Z,26.00
2018-07-01T03:37:48.258Z,26.21
2018-07-01T03:38:48.285Z,26.41
2018-07-01T03:39:48.303Z,26.42
2018-07-01T03:40:48.326Z,26.34
2018-07-01T03:41:48.355Z,26.36
2018-07-01T03:42:48.378Z,26.24
2018-07-01T03:43:48.401Z,26.24
2018-07-01T03:44:48.429Z,26.12
2018-07-01T03:45:48.447Z,26.04
2018-07-01T03:46:48.474Z,26.08
2018-07-01T03:47:48.503Z,25.86
2018-07-01T03:48:48.528Z,26.06
2018-07-01T03:49:48.549Z,25.91
2018-07-01T03:50:48.575Z,26.04
2018-07-01T03:51:48.596Z,26.17
2018-07-01T03:52:48.621Z,26.35
2018-07-01T03:53:48.658Z,26.54
2018-07-01T03:54:48.675Z,26.84
2018-07-01T03:55:48.697Z,27.24
2018-07-01T03:56:48.724Z,27.48
2018-07-01T03:57:48.896Z,27.72
2018-07-01T03:58:48.777Z,27.96
2018-07-01T03:59:48.806Z,28.13
2018-07-01T04:00:48.831Z,28.43
2018-07-01T04:01:48.852Z,28.65
2018-07-01T04:02:48.879Z,28.85
2018-07-01T04:03:48.906Z,28.92
2018-07-01T04:04:48.931Z,29.11
2018-07-01T04:05:48.952Z,29.25
2018-07-01T04:06:48.979Z,29.45
2018-07-01T04:07:49.007Z,29.64
2018-07-01T04:08:49.034Z,29.82
2018-07-01T04:09:49.065Z,29.95
2018-07-01T04:10:49.096Z,30.23
2018-07-01T04:11:49.110Z,30.26
2018-07-01T04:12:49.134Z,30.36
2018-07-01T04:13:49.166Z,30.49
2018-07-01T04:14:49.190Z,30.66
2018-07-01T04:15:49.218Z,30.88
2018-07-01T04:16:49.249Z,30.85
2018-07-01T04:17:49.271Z,31.03
2018-07-01T04:18:49.295Z,31.18
2018-07-01T04:19:49.324Z,31.31
2018-07-01T04:20:49.352Z,31.47
2018-07-01T04:21:49.376Z,31.56
2018-07-01T04:22:49.402Z,31.62
2018-07-01T04:23:49.432Z,31.74
2018-07-01T04:24:49.458Z,31.94
2018-07-01T04:25:49.489Z,32.06
2018-07-01T04:26:49.523Z,32.27
2018-07-01T04:27:49.544Z,32.40
2018-07-01T04:28:49.577Z,32.40
2018-07-01T04:29:49.604Z,32.47
2018-07-01T04:30:49.634Z,32.66
2018-07-01T04:31:49.660Z,32.77
2018-07-01T04:32:49.697Z,32.90
2018-07-01T04:33:49.712Z,32.95
2018-07-01T04:34:49.746Z,33.00
2018-07-01T04:35:49.776Z,33.24
2018-07-01T04:36:49.805Z,33.22
2018-07-01T04:37:49.832Z,33.45
2018-07-01T04:38:49.863Z,33.53
2018-07-01T04:39:49.892Z,33.66
2018-07-01T04:40:49.919Z,33.86
2018-07-01T04:41:49.953Z,33.92
2018-07-01T04:42:49.984Z,34.14
2018-07-01T04:43:50.010Z,34.11
2018-07-01T04:44:50.040Z,34.37
2018-07-01T04:45:50.076Z,34.49
2018-07-01T04:46:50.105Z,34.52
2018-07-01T04:47:50.143Z,34.61
2018-07-01T04:48:50.170Z,34.72
2018-07-01T04:49:50.197Z,34.84
2018-07-01T04:50:50.227Z,34.94
2018-07-01T04:51:50.260Z,35.03
2018-07-01T04:52:50.292Z,35.12
2018-07-01T04:53:50.320Z,35.15
2018-07-01T04:54:50.350Z,35.25
2018-07-01T04:55:50.385Z,35.28
2018-07-01T04:56:50.418Z,35.47
2018-07-01T04:57:50.455Z,35.46
2018-07-01T04:58:50.488Z,35.73
2018-07-01T04:59:50.513Z,35.69
2018-07-01T05:00:50.551Z,35.74
2018-07-01T05:01:50.595Z,35.80
2018-07-01T05:02:50.614Z,35.92
2018-07-01T05:03:50.646Z,35.92
2018-07-01T05:04:50.680Z,35.89
2018-07-01T05:05:50.709Z,35.96
2018-07-01T05:06:50.740Z,35.92
2018-07-01T05:07:50.780Z,35.65
2018-07-01T05:08:50.812Z,35.36
2018-07-01T05:09:50.842Z,35.18
2018-07-01T05:10:50.874Z,34.88
2018-07-01T05:11:50.907Z,34.61
2018-07-01T05:12:50.942Z,34.42
2018-07-01T05:13:50.979Z,34.00
2018-07-01T05:14:51.012Z,33.92
2018-07-01T05:15:51.048Z,33.71
2018-07-01T05:16:51.081Z,33.53
2018-07-01T05:17:51.111Z,33.47
2018-07-01T05:18:51.143Z,33.24
2018-07-01T05:19:51.180Z,33.11
2018-07-01T05:20:51.214Z,32.98
2018-07-01T05:21:51.256Z,33.02
2018-07-01T05:22:51.285Z,32.88
2018-07-01T05:23:51.321Z,32.77
2018-07-01T05:24:51.349Z,32.71
2018-07-01T05:25:51.391Z,32.51
2018-07-01T05:26:51.422Z,32.54
2018-07-01T05:27:51.470Z,32.40
2018-07-01T05:28:51.493Z,32.36
2018-07-01T05:29:51.528Z,32.40
2018-07-01T05:30:51.557Z,32.34
2018-07-01T05:31:51.595Z,32.22
2018-07-01T05:32:51.630Z,32.03
2018-07-01T05:33:51.662Z,31.97
2018-07-01T05:34:51.697Z,31.99
2018-07-01T05:35:51.727Z,31.98
2018-07-01T05:36:51.761Z,31.78
2018-07-01T05:37:51.799Z,31.90
2018-07-01T05:38:51.832Z,31.78
2018-07-01T05:39:51.865Z,31.69
2018-07-01T05:40:51.898Z,31.71
2018-07-01T05:41:51.932Z,31.76
2018-07-01T05:42:51.967Z,31.76
2018-07-01T05:43:52.000Z,32.07
2018-07-01T05:44:52.033Z,32.34
2018-07-01T05:45:52.061Z,32.76
2018-07-01T05:46:52.094Z,33.14
2018-07-01T05:47:52.131Z,33.63
2018-07-01T05:48:52.163Z,33.97
2018-07-01T05:49:52.192Z,34.30
2018-07-01T05:50:52.225Z,34.49
2018-07-01T05:51:52.258Z,34.69
2018-07-01T05:52:52.291Z,34.93
2018-07-01T05:53:52.330Z,35.03
2018-07-01T05:54:52.359Z,35.15
2018-07-01T05:55:52.384Z,35.28
2018-07-01T05:56:52.416Z,35.43
2018-07-01T05:57:52.455Z,35.49
2018-07-01T05:58:52.483Z,35.59
2018-07-01T05:59:52.517Z,35.71
2018-07-01T06:00:52.548Z,35.80
2018-07-01T06:01:52.576Z,35.89
2018-07-01T06:02:52.606Z,35.87
2018-07-01T06:03:52.643Z,35.87
2018-07-01T06:04:52.676Z,35.99
2018-07-01T06:05:52.703Z,36.21
2018-07-01T06:06:52.733Z,36.15
2018-07-01T06:07:52.762Z,36.31
2018-07-01T06:08:52.794Z,36.35
2018-07-01T06:09:52.830Z,36.41
2018-07-01T06:10:52.862Z,36.49
2018-07-01T06:11:52.892Z,36.46
2018-07-01T06:12:52.923Z,36.53
2018-07-01T06:13:52.960Z,36.65
2018-07-01T06:14:52.989Z,36.62
2018-07-01T06:15:53.021Z,36.59
2018-07-01T06:16:53.127Z,36.65
2018-07-01T06:17:53.080Z,36.69
2018-07-01T06:18:53.113Z,36.71
2018-07-01T06:19:53.153Z,36.75
2018-07-01T06:20:53.185Z,36.87
2018-07-01T06:21:53.214Z,36.83
2018-07-01T06:22:53.244Z,36.91
2018-07-01T06:23:53.276Z,36.93
2018-07-01T06:24:53.309Z,36.83
2018-07-01T06:25:53.346Z,36.75
2018-07-01T06:26:53.376Z,36.62
2018-07-01T06:27:53.410Z,36.02
2018-07-01T06:28:53.443Z,35.22
2018-07-01T06:29:53.481Z,34.58
2018-07-01T06:30:53.515Z,33.90
2018-07-01T06:31:53.544Z,33.56
2018-07-01T06:32:53.601Z,33.09
2018-07-01T06:33:53.610Z,32.87
2018-07-01T06:34:53.638Z,32.54
2018-07-01T06:35:53.677Z,32.41
2018-07-01T06:36:53.710Z,32.06
2018-07-01T06:37:53.739Z,31.92
2018-07-01T06:38:53.770Z,31.68
2018-07-01T06:39:53.807Z,31.46
2018-07-01T06:40:53.837Z,31.41
2018-07-01T06:41:53.911Z,31.25
2018-07-01T06:42:53.907Z,31.13
2018-07-01T06:43:53.932Z,31.03
2018-07-01T06:44:53.963Z,30.90
2018-07-01T06:45:54.010Z,30.81
2018-07-01T06:46:54.032Z,30.75
2018-07-01T06:47:54.062Z,30.66
2018-07-01T06:48:54.096Z,30.60
2018-07-01T06:49:54.123Z,30.57
2018-07-01T06:50:54.155Z,30.36
2018-07-01T06:51:54.186Z,30.30
2018-07-01T06:52:54.218Z,30.25
2018-07-01T06:53:54.246Z,30.16
2018-07-01T06:54:54.276Z,30.10
2018-07-01T06:55:54.306Z,30.06
2018-07-01T06:56:54.335Z,29.97
2018-07-01T06:57:54.370Z,29.89
2018-07-01T06:58:54.397Z,29.94
2018-07-01T06:59:54.427Z,29.74
2018-07-01T07:00:54.461Z,29.76
2018-07-01T07:01:54.490Z,29.76
2018-07-01T07:02:54.519Z,29.69
2018-07-01T07:03:54.549Z,29.57
2018-07-01T07:04:54.575Z,29.47
2018-07-01T07:05:54.607Z,29.47
2018-07-01T07:06:54.644Z,29.41
2018-07-01T07:07:54.701Z,29.44
2018-07-01T07:08:54.697Z,29.33
2018-07-01T07:09:54.721Z,29.35
2018-07-01T07:10:54.755Z,29.30
2018-07-01T07:11:54.783Z,29.23
2018-07-01T07:12:54.817Z,29.29
2018-07-01T07:13:54.857Z,29.32
2018-07-01T07:14:54.889Z,29.21
2018-07-01T07:15:54.895Z,29.18
2018-07-01T07:16:54.932Z,29.17
2018-07-01T07:17:54.961Z,29.12
2018-07-01T07:18:54.993Z,29.03
2018-07-01T07:19:55.021Z,28.97
2018-07-01T07:20:55.046Z,28.91
2018-07-01T07:21:55.074Z,28.94
2018-07-01T07:22:55.103Z,28.88
2018-07-01T07:23:55.133Z,28.88
2018-07-01T07:24:55.163Z,28.88
2018-07-01T07:25:55.193Z,28.76
2018-07-01T07:26:55.220Z,28.80
2018-07-01T07:27:55.248Z,28.76
2018-07-01T07:28:55.271Z,28.74
2018-07-01T07:29:55.302Z,28.72
2018-07-01T07:30:55.340Z,28.67
2018-07-01T07:31:55.399Z,28.58
2018-07-01T07:32:55.413Z,28.60
2018-07-01T07:33:55.418Z,28.64
2018-07-01T07:34:55.437Z,28.60
2018-07-01T07:35:55.474Z,28.58
2018-07-01T07:36:55.504Z,28.57
2018-07-01T07:37:55.533Z,28.54
2018-07-01T07:38:55.557Z,28.51
2018-07-01T07:39:55.586Z,28.55
2018-07-01T07:40:55.615Z,28.46
2018-07-01T07:41:55.646Z,28.38
2018-07-01T07:42:55.675Z,28.39
2018-07-01T07:43:55.702Z,28.38
2018-07-01T07:44:55.739Z,28.39
2018-07-01T07:45:55.755Z,28.28
2018-07-01T07:46:55.785Z,28.35
2018-07-01T07:47:55.816Z,28.35
2018-07-01T07:48:55.837Z,28.30
2018-07-01T07:49:55.865Z,28.23
2018-07-01T07:50:55.895Z,28.17
2018-07-01T07:51:55.923Z,28.18
2018-07-01T07:52:55.955Z,28.14
2018-07-01T07:53:55.982Z,28.15
2018-07-01T07:54:56.006Z,28.17
2018-07-01T07:55:56.032Z,28.11
2018-07-01T07:56:56.065Z,28.13
2018-07-01T07:57:56.092Z,28.11
2018-07-01T07:58:56.118Z,28.06
2018-07-01T07:59:56.147Z,28.06
2018-07-01T08:00:56.171Z,28.03
2018-07-01T08:01:56.214Z,28.05
2018-07-01T08:02:56.230Z,27.98
2018-07-01T08:03:56.257Z,27.91
2018-07-01T08:04:56.284Z,27.90
2018-07-01T08:05:56.310Z,27.88
2018-07-01T08:06:56.335Z,27.84
2018-07-01T08:07:56.363Z,27.81
2018-07-01T08:08:56.392Z,27.83
2018-07-01T08:09:56.422Z,27.77
2018-07-01T08:10:56.444Z,27.80
2018-07-01T08:11:56.472Z,27.78
2018-07-01T08:12:56.508Z,27.81
2018-07-01T08:13:56.532Z,27.72
2018-07-01T08:14:56.564Z,27.71
2018-07-01T08:15:56.588Z,27.69
2018-07-01T08:16:56.613Z,27.68
2018-07-01T08:17:56.639Z,27.72
2018-07-01T08:18:56.666Z,27.62
2018-07-01T08:19:56.695Z,27.62
2018-07-01T08:20:56.720Z,27.68
2018-07-01T08:21:56.797Z,27.61
2018-07-01T08:22:56.775Z,27.66
2018-07-01T08:23:56.805Z,27.52
2018-07-01T08:24:56.832Z,27.53
2018-07-01T08:25:56.860Z,27.42
2018-07-01T08:26:56.881Z,27.49
2018-07-01T08:27:56.908Z,27.42
2018-07-01T08:28:56.955Z,27.48
2018-07-01T08:29:56.968Z,27.46
2018-07-01T08:30:56.996Z,27.40
2018-07-01T08:31:57.022Z,27.40
2018-07-01T08:32:57.046Z,27.39
2018-07-01T08:33:57.073Z,27.42
2018-07-01T08:34:57.104Z,27.38
2018-07-01T08:35:57.128Z,27.39
2018-07-01T08:36:57.152Z,27.31
2018-07-01T08:37:57.179Z,27.33
2018-07-01T08:38:57.212Z,27.21
2018-07-01T08:39:57.244Z,27.31
2018-07-01T08:40:57.276Z,27.28
2018-07-01T08:41:57.294Z,27.27
2018-07-01T08:42:57.314Z,27.30
2018-07-01T08:43:57.343Z,27.27
2018-07-01T08:44:57.375Z,27.28
2018-07-01T08:45:57.402Z,27.23
2018-07-01T08:46:57.425Z,27.28
2018-07-01T08:47:57.451Z,27.23
2018-07-01T08:48:57.475Z,27.18
2018-07-01T08:49:57.503Z,27.16
2018-07-01T08:50:57.534Z,27.21
2018-07-01T08:51:57.559Z,27.08
2018-07-01T08:52:57.583Z,27.11
2018-07-01T08:53:57.610Z,27.09
2018-07-01T08:54:57.634Z,27.11
2018-07-01T08:55:57.668Z,27.15
2018-07-01T08:56:57.694Z,27.03
2018-07-01T08:57:57.722Z,27.03
2018-07-01T08:58:57.741Z,26.98
2018-07-01T08:59:57.770Z,27.05
2018-07-01T09:00:57.798Z,27.01
2018-07-01T09:01:57.826Z,27.02
2018-07-01T09:02:57.854Z,26.97
2018-07-01T09:03:57.880Z,26.97
2018-07-01T09:04:57.904Z,27.06
2018-07-01T09:05:57.931Z,27.02
2018-07-01T09:06:57.958Z,27.02
2018-07-01T09:07:57.986Z,26.97
2018-07-01T09:08:58.009Z,26.96
2018-07-01T09:09:58.035Z,26.96
2018-07-01T09:10:58.061Z,26.94
2018-07-01T09:11:58.090Z,26.88
2018-07-01T09:12:58.121Z,26.88
2018-07-01T09:13:58.145Z,26.86
2018-07-01T09:14:58.168Z,26.87
2018-07-01T09:15:58.199Z,26.78
2018-07-01T09:16:58.284Z,26.84
2018-07-01T09:17:58.254Z,26.88
2018-07-01T09:18:58.275Z,26.88
2018-07-01T09:19:58.303Z,26.78
2018-07-01T09:20:58.325Z,26.86
2018-07-01T09:21:58.353Z,26.79
2018-07-01T09:22:58.383Z,26.73
2018-07-01T09:23:58.412Z,26.76
2018-07-01T09:24:58.433Z,26.79
2018-07-01T09:25:58.460Z,26.73
2018-07-01T09:26:58.497Z,26.68
2018-07-01T09:27:58.509Z,26.72
2018-07-01T09:28:58.618Z,26.69
2018-07-01T09:29:58.568Z,26.61
2018-07-01T09:30:58.593Z,26.59
2018-07-01T09:31:58.619Z,26.66
2018-07-01T09:32:58.642Z,26.57
2018-07-01T09:33:58.669Z,26.65
2018-07-01T09:34:58.695Z,26.64
2018-07-01T09:35:58.722Z,26.54
2018-07-01T09:36:58.753Z,26.60
2018-07-01T09:37:58.778Z,26.53
2018-07-01T09:38:58.799Z,26.56
2018-07-01T09:39:58.825Z,26.56
2018-07-01T09:40:58.856Z,26.51
2018-07-01T09:41:58.882Z,26.56
2018-07-01T09:42:58.910Z,26.50
2018-07-01T09:43:58.934Z,26.54
2018-07-01T09:44:58.959Z,26.50
2018-07-01T09:45:58.985Z,26.53
2018-07-01T09:46:59.014Z,26.53
2018-07-01T09:47:59.039Z,26.51
2018-07-01T09:48:59.063Z,26.41
2018-07-01T09:49:59.090Z,26.44
2018-07-01T09:50:59.114Z,26.38
2018-07-01T09:51:59.153Z,26.41
2018-07-01T09:52:59.168Z,26.39
2018-07-01T09:53:59.196Z,26.44
2018-07-01T09:54:59.217Z,26.39
2018-07-01T09:55:59.245Z,26.44
2018-07-01T09:56:59.275Z,26.38
2018-07-01T09:57:59.303Z,26.38
2018-07-01T09:58:59.328Z,26.34
2018-07-01T09:59:59.352Z,26.36
2018-07-01T10:00:59.383Z,26.31
2018-07-01T10:01:59.401Z,26.38
2018-07-01T10:02:59.429Z,26.35
2018-07-01T10:03:59.456Z,26.32
2018-07-01T10:04:59.477Z,26.27
2018-07-01T10:05:59.504Z,26.24
2018-07-01T10:06:59.529Z,26.32
2018-07-01T10:07:59.557Z,26.29
2018-07-01T10:08:59.586Z,26.20
2018-07-01T10:09:59.613Z,26.23
2018-07-01T10:10:59.632Z,26.31
2018-07-01T10:11:59.705Z,26.27
2018-07-01T10:12:59.692Z,26.23
2018-07-01T10:13:59.718Z,26.29
2018-07-01T10:14:59.742Z,26.16
2018-07-01T10:15:59.775Z,26.27
2018-07-01T10:16:59.793Z,26.20
2018-07-01T10:17:59.816Z,26.21
2018-07-01T10:18:59.848Z,26.20
2018-07-01T10:19:59.872Z,26.16
2018-07-01T10:20:59.900Z,26.17
2018-07-01T10:21:59.919Z,26.13
2018-07-01T10:22:59.942Z,26.17
2018-07-01T10:23:59.972Z,26.12
2018-07-01T10:24:59.997Z,26.19
2018-07-01T10:26:00.030Z,26.17
2018-07-01T10:27:00.047Z,26.16
2018-07-01T10:28:00.076Z,26.08
2018-07-01T10:29:00.107Z,26.04
2018-07-01T10:30:00.136Z,26.04
2018-07-01T10:31:00.153Z,26.06
2018-07-01T10:32:00.178Z,26.08
2018-07-01T10:33:00.201Z,26.09
2018-07-01T10:34:00.228Z,26.01
2018-07-01T10:35:00.257Z,25.98
2018-07-01T10:36:00.282Z,26.04
2018-07-01T10:37:00.305Z,26.04
2018-07-01T10:38:00.332Z,26.00
2018-07-01T10:39:00.355Z,26.03
2018-07-01T10:40:00.381Z,26.08
2018-07-01T10:41:00.412Z,26.03
2018-07-01T10:42:00.437Z,25.97
2018-07-01T10:43:00.459Z,25.94
2018-07-01T10:44:00.490Z,26.00
2018-07-01T10:45:00.515Z,26.04
2018-07-01T10:46:00.536Z,26.11
2018-07-01T10:47:00.564Z,25.97
2018-07-01T10:48:00.592Z,25.93
2018-07-01T10:49:00.615Z,25.93
2018-07-01T10:50:00.639Z,25.96
2018-07-01T10:51:00.667Z,25.96
2018-07-01T10:52:00.691Z,25.94
2018-07-01T10:53:00.716Z,25.94
2018-07-01T10:54:00.740Z,25.97
2018-07-01T10:55:00.768Z,26.00
2018-07-01T10:56:00.793Z,25.96
2018-07-01T10:57:00.821Z,25.96
2018-07-01T10:58:00.852Z,25.97
2018-07-01T10:59:00.867Z,25.97
2018-07-01T11:00:00.897Z,26.00
2018-07-01T11:01:00.923Z,25.98
2018-07-01T11:02:00.952Z,25.97
2018-07-01T11:03:00.976Z,25.89
2018-07-01T11:04:01.006Z,25.94
2018-07-01T11:05:01.028Z,25.94
2018-07-01T11:06:01.086Z,25.89
2018-07-01T11:07:01.079Z,25.85
2018-07-01T11:08:01.106Z,25.94
2018-07-01T11:09:01.125Z,25.94
2018-07-01T11:10:01.152Z,25.85
2018-07-01T11:11:01.178Z,25.83
2018-07-01T11:12:01.200Z,25.89
2018-07-01T11:13:01.232Z,25.90
2018-07-01T11:14:01.257Z,25.91
2018-07-01T11:15:01.279Z,25.79
2018-07-01T11:16:01.305Z,25.90
2018-07-01T11:17:01.335Z,25.89
2018-07-01T11:18:01.370Z,25.91
2018-07-01T11:19:01.385Z,25.94
2018-07-01T11:20:01.410Z,25.85
2018-07-01T11:21:01.435Z,25.86
2018-07-01T11:22:01.457Z,25.82
2018-07-01T11:23:01.487Z,25.85
2018-07-01T11:24:01.511Z,25.82
2018-07-01T11:25:01.535Z,25.86
2018-07-01T11:26:01.557Z,25.89
2018-07-01T11:27:01.851Z,25.82
2018-07-01T11:28:01.610Z,25.85
2018-07-01T11:29:01.640Z,25.81
2018-07-01T11:30:01.669Z,25.81
2018-07-01T11:31:01.687Z,25.86
2018-07-01T11:32:01.710Z,25.81
2018-07-01T11:33:01.739Z,25.83
2018-07-01T11:34:01.765Z,25.74
2018-07-01T11:35:01.840Z,25.71
2018-07-01T11:36:01.817Z,25.71
2018-07-01T11:37:01.901Z,25.72
2018-07-01T11:38:01.869Z,25.69
2018-07-01T11:39:01.888Z,25.71
2018-07-01T11:40:01.915Z,25.75
2018-07-01T11:41:01.943Z,25.74
2018-07-01T11:42:01.970Z,25.71
2018-07-01T11:43:01.996Z,25.74
2018-07-01T11:44:02.022Z,25.74
2018-07-01T11:45:02.043Z,25.71
2018-07-01T11:46:02.079Z,25.74
2018-07-01T11:47:02.095Z,25.76
2018-07-01T11:48:02.125Z,25.75
2018-07-01T11:49:02.143Z,25.71
2018-07-01T11:50:02.183Z,25.71
2018-07-01T11:51:02.195Z,25.75
2018-07-01T11:52:02.221Z,25.72
2018-07-01T11:53:02.251Z,25.75
2018-07-01T11:54:02.279Z,25.75
2018-07-01T11:55:02.296Z,25.72
2018-07-01T11:56:02.322Z,25.76
2018-07-01T11:57:02.352Z,25.74
2018-07-01T11:58:02.384Z,25.71
2018-07-01T11:59:02.400Z,25.67
2018-07-01T12:00:02.467Z,25.71
2018-07-01T12:01:02.447Z,25.71
2018-07-01T12:02:02.472Z,25.72
2018-07-01T12:03:02.505Z,25.74
2018-07-01T12:04:02.580Z,25.75
2018-07-01T12:05:16.202Z,25.67
2018-07-01T12:06:02.577Z,25.71
2018-07-01T12:07:02.598Z,25.71
2018-07-01T12:08:02.624Z,25.76
2018-07-01T12:09:02.655Z,25.75
2018-07-01T12:10:02.679Z,25.76
2018-07-01T12:11:02.700Z,25.74
2018-07-01T12:12:02.773Z,25.75
2018-07-01T12:13:02.755Z,25.72
2018-07-01T12:14:02.788Z,25.69
2018-07-01T12:15:02.807Z,25.75
2018-07-01T12:16:02.833Z,25.66
2018-07-01T12:17:02.854Z,25.67
2018-07-01T12:18:02.880Z,25.66
2018-07-01T12:19:02.909Z,25.72
2018-07-01T12:20:02.931Z,25.66
2018-07-01T12:21:02.953Z,25.71
2018-07-01T12:22:02.979Z,25.69
2018-07-01T12:23:03.005Z,25.72
2018-07-01T12:24:03.031Z,25.71
2018-07-01T12:25:03.061Z,25.72
2018-07-01T12:26:03.084Z,25.60
2018-07-01T12:27:03.106Z,25.67
2018-07-01T12:28:03.131Z,25.61
2018-07-01T12:29:03.161Z,25.69
2018-07-01T12:30:03.186Z,25.69
2018-07-01T12:31:03.209Z,25.69
2018-07-01T12:32:03.237Z,25.72
2018-07-01T12:33:03.256Z,25.63
2018-07-01T12:34:03.281Z,25.66
2018-07-01T12:35:03.312Z,25.60
2018-07-01T12:36:03.339Z,25.64
2018-07-01T12:37:03.359Z,25.67
2018-07-01T12:38:03.384Z,25.61
2018-07-01T12:39:03.411Z,25.61
2018-07-01T12:40:03.432Z,25.61
2018-07-01T12:41:03.463Z,25.63
2018-07-01T12:42:03.594Z,25.59
2018-07-01T12:43:03.517Z,25.66
2018-07-01T12:44:03.534Z,25.60
2018-07-01T12:45:03.564Z,25.61
2018-07-01T12:46:03.592Z,25.67
2018-07-01T12:47:03.612Z,25.61
2018-07-01T12:48:03.639Z,25.67
2018-07-01T12:49:03.662Z,25.56
2018-07-01T12:50:03.688Z,25.61
2018-07-01T12:51:03.716Z,25.61
2018-07-01T12:52:03.740Z,25.66
2018-07-01T12:53:03.762Z,25.64